<?xml version="1.0" encoding="UTF-8"?>
<gpx version="1.1" creator="2bulu-scraper" xmlns="http://www.topografix.com/GPX/1/1">
  <metadata><name>乐山峨边彝族自治县</name><desc>source: 2bulu.com trackId=81924647; exported 2026-09-01T17:22:05.613Z</desc>
    <bounds minlat="29.0296383" minlon="103.0083692" maxlat="29.0441126" maxlon="103.0245487"/>
    <link href="https://www.2bulu.com/track/t-unRUXzQTboLp%252FR2KBg5Tzw%253D%253D.htm"><text>2bulu 源页面</text></link>
  </metadata>
  <wpt lat="29.0439741" lon="103.0084469"><ele>1691</ele><name>出发点
        </name></wpt>
  <wpt lat="29.0436034" lon="103.0090361"><ele>1698</ele><name>路口
        </name></wpt>
  <wpt lat="29.0435331" lon="103.009418"><ele>1698</ele><name>分路口
        </name></wpt>
  <wpt lat="29.0429414" lon="103.0108238"><ele>1708</ele><name>上坡路
        </name></wpt>
  <wpt lat="29.041681" lon="103.0115269"><ele>1715</ele><name>持续上坡路
        </name></wpt>
  <wpt lat="29.0394517" lon="103.0121904"><ele>1742</ele><name>
        </name></wpt>
  <wpt lat="29.0394368" lon="103.0122926"><ele>1744</ele><name>直行
        </name></wpt>
  <wpt lat="29.0393115" lon="103.0136205"><ele>1759</ele><name>危险区
        </name></wpt>
  <wpt lat="29.0395115" lon="103.014824"><ele>1772</ele><name>风景点
        </name></wpt>
  <wpt lat="29.0378533" lon="103.0163917"><ele>1812</ele><name>休息区
        </name></wpt>
  <wpt lat="29.0357144" lon="103.0176783"><ele>1821</ele><name>野生动物出没
        </name></wpt>
  <wpt lat="29.0360498" lon="103.01979"><ele>1823</ele><name>休息区
        </name></wpt>
  <wpt lat="29.0349216" lon="103.0209494"><ele>1834</ele><name>连续弯道
        </name></wpt>
  <wpt lat="29.0339075" lon="103.020766"><ele>1888</ele><name>风景点
        </name></wpt>
  <wpt lat="29.0331833" lon="103.0209909"><ele>1891</ele><name>爱心弯道
        </name></wpt>
  <wpt lat="29.0325339" lon="103.0211896"><ele>1903</ele><name>休息区
        </name></wpt>
  <wpt lat="29.0324317" lon="103.0213592"><ele>1903</ele><name>卫生间
        </name></wpt>
  <wpt lat="29.0320932" lon="103.0220276"><ele>1904</ele><name>左转
        </name></wpt>
  <wpt lat="29.0303637" lon="103.024155"><ele>1909</ele><name>休息区
        </name></wpt>
  <wpt lat="29.0298497" lon="103.0243779"><ele>1913</ele><name>折返点
        </name></wpt>
  <wpt lat="29.0297583" lon="103.0245954"><ele>1915</ele><name>休息区
        </name></wpt>
  <wpt lat="29.0325739" lon="103.02117"><ele>1895</ele><name>右转
        </name></wpt>
  <wpt lat="29.0340017" lon="103.0220539"><ele>1854</ele><name>危险区
        </name></wpt>
  <wpt lat="29.0384667" lon="103.0164821"><ele>1808</ele><name>长下坡
        </name></wpt>
  <wpt lat="29.0394699" lon="103.0151337"><ele>1779</ele><name>休息区
        </name></wpt>
  <wpt lat="29.0438292" lon="103.0088011"><ele>1698</ele><name>左转
        </name></wpt>
  <wpt lat="29.0440334" lon="103.0085571"><ele>1699</ele><name>终点站
        </name></wpt>
  <trk><name>乐山峨边彝族自治县</name>
      <trkseg>
        <trkpt lat="29.0439789" lon="103.008552"><ele>1702.72</ele><time>2026-04-08T21:08:59.000Z</time></trkpt>
        <trkpt lat="29.0439741" lon="103.0084469"><ele>1702.72</ele><time>2026-04-08T21:09:18.000Z</time></trkpt>
        <trkpt lat="29.0439741" lon="103.0084469"><ele>1702.72</ele><time>2026-04-08T21:12:01.000Z</time></trkpt>
      </trkseg>
      <trkseg>
        <trkpt lat="29.0439798" lon="103.0086061"><ele>1697.74</ele><time>2026-04-08T21:13:15.000Z</time></trkpt>
        <trkpt lat="29.0439798" lon="103.0086061"><ele>1697.74</ele><time>2026-04-08T21:13:18.000Z</time></trkpt>
        <trkpt lat="29.043978" lon="103.0087101"><ele>1703.31</ele><time>2026-04-08T21:13:28.000Z</time></trkpt>
        <trkpt lat="29.0439172" lon="103.0087896"><ele>1703.87</ele><time>2026-04-08T21:13:40.000Z</time></trkpt>
        <trkpt lat="29.0438305" lon="103.0088387"><ele>1704.34</ele><time>2026-04-08T21:13:52.000Z</time></trkpt>
        <trkpt lat="29.0437476" lon="103.0089001"><ele>1703.39</ele><time>2026-04-08T21:14:02.000Z</time></trkpt>
        <trkpt lat="29.0436643" lon="103.0089542"><ele>1701.5</ele><time>2026-04-08T21:14:12.000Z</time></trkpt>
        <trkpt lat="29.0436034" lon="103.0090361"><ele>1700.88</ele><time>2026-04-08T21:14:32.000Z</time></trkpt>
        <trkpt lat="29.043581" lon="103.0091384"><ele>1699.84</ele><time>2026-04-08T21:14:50.000Z</time></trkpt>
        <trkpt lat="29.0435421" lon="103.0092414"><ele>1699.48</ele><time>2026-04-08T21:15:00.000Z</time></trkpt>
        <trkpt lat="29.0435317" lon="103.0093533"><ele>1699.11</ele><time>2026-04-08T21:15:10.000Z</time></trkpt>
        <trkpt lat="29.0435331" lon="103.009418"><ele>1698.48</ele><time>2026-04-08T21:15:16.000Z</time></trkpt>
        <trkpt lat="29.0435052" lon="103.0095027"><ele>1698.21</ele><time>2026-04-08T21:15:32.000Z</time></trkpt>
        <trkpt lat="29.0434644" lon="103.0095772"><ele>1697.95</ele><time>2026-04-08T21:15:50.000Z</time></trkpt>
        <trkpt lat="29.0434621" lon="103.0096737"><ele>1696.95</ele><time>2026-04-08T21:16:06.000Z</time></trkpt>
        <trkpt lat="29.0434704" lon="103.0097781"><ele>1695.59</ele><time>2026-04-08T21:16:18.000Z</time></trkpt>
        <trkpt lat="29.0434809" lon="103.009887"><ele>1695.31</ele><time>2026-04-08T21:16:46.000Z</time></trkpt>
        <trkpt lat="29.0434917" lon="103.0100029"><ele>1695.51</ele><time>2026-04-08T21:16:56.000Z</time></trkpt>
        <trkpt lat="29.0434938" lon="103.0101155"><ele>1695.91</ele><time>2026-04-08T21:17:06.000Z</time></trkpt>
        <trkpt lat="29.0434905" lon="103.0102296"><ele>1696.3</ele><time>2026-04-08T21:17:16.000Z</time></trkpt>
        <trkpt lat="29.0434782" lon="103.0103465"><ele>1696.64</ele><time>2026-04-08T21:17:26.000Z</time></trkpt>
        <trkpt lat="29.0434513" lon="103.0104565"><ele>1697.96</ele><time>2026-04-08T21:17:40.000Z</time></trkpt>
        <trkpt lat="29.0433851" lon="103.0105368"><ele>1698.81</ele><time>2026-04-08T21:17:50.000Z</time></trkpt>
        <trkpt lat="29.0433011" lon="103.0106001"><ele>1699.47</ele><time>2026-04-08T21:18:00.000Z</time></trkpt>
        <trkpt lat="29.0432203" lon="103.0106691"><ele>1700.71</ele><time>2026-04-08T21:18:16.000Z</time></trkpt>
        <trkpt lat="29.0431267" lon="103.0107182"><ele>1702.6</ele><time>2026-04-08T21:18:26.000Z</time></trkpt>
        <trkpt lat="29.0430352" lon="103.0107774"><ele>1703.9</ele><time>2026-04-08T21:18:36.000Z</time></trkpt>
        <trkpt lat="29.0429414" lon="103.0108238"><ele>1705.7</ele><time>2026-04-08T21:18:48.000Z</time></trkpt>
        <trkpt lat="29.0428467" lon="103.0108561"><ele>1706.79</ele><time>2026-04-08T21:19:00.000Z</time></trkpt>
        <trkpt lat="29.0427497" lon="103.0108992"><ele>1707.49</ele><time>2026-04-08T21:19:12.000Z</time></trkpt>
        <trkpt lat="29.0426567" lon="103.0109491"><ele>1708.63</ele><time>2026-04-08T21:19:22.000Z</time></trkpt>
        <trkpt lat="29.0425687" lon="103.0109973"><ele>1709.07</ele><time>2026-04-08T21:19:32.000Z</time></trkpt>
        <trkpt lat="29.0424803" lon="103.0110312"><ele>1711.35</ele><time>2026-04-08T21:19:42.000Z</time></trkpt>
        <trkpt lat="29.0423855" lon="103.0110471"><ele>1713.13</ele><time>2026-04-08T21:19:54.000Z</time></trkpt>
        <trkpt lat="29.0422869" lon="103.0110732"><ele>1714.83</ele><time>2026-04-08T21:20:06.000Z</time></trkpt>
        <trkpt lat="29.0421857" lon="103.0110941"><ele>1715.41</ele><time>2026-04-08T21:20:16.000Z</time></trkpt>
        <trkpt lat="29.0420858" lon="103.0111301"><ele>1715.31</ele><time>2026-04-08T21:20:26.000Z</time></trkpt>
        <trkpt lat="29.0419919" lon="103.011181"><ele>1714.83</ele><time>2026-04-08T21:20:36.000Z</time></trkpt>
        <trkpt lat="29.0419097" lon="103.0112364"><ele>1715.21</ele><time>2026-04-08T21:20:44.000Z</time></trkpt>
        <trkpt lat="29.0418837" lon="103.0113118"><ele>1715.13</ele><time>2026-04-08T21:20:58.000Z</time></trkpt>
        <trkpt lat="29.0418111" lon="103.0113628"><ele>1715.01</ele><time>2026-04-08T21:21:42.000Z</time></trkpt>
        <trkpt lat="29.041749" lon="103.0114432"><ele>1714.36</ele><time>2026-04-08T21:21:52.000Z</time></trkpt>
        <trkpt lat="29.041681" lon="103.0115269"><ele>1714.6</ele><time>2026-04-08T21:22:04.000Z</time></trkpt>
        <trkpt lat="29.0416076" lon="103.0115964"><ele>1714.79</ele><time>2026-04-08T21:22:44.000Z</time></trkpt>
        <trkpt lat="29.0415174" lon="103.0116507"><ele>1714.52</ele><time>2026-04-08T21:23:00.000Z</time></trkpt>
        <trkpt lat="29.0414253" lon="103.0116983"><ele>1716.71</ele><time>2026-04-08T21:23:10.000Z</time></trkpt>
        <trkpt lat="29.0413263" lon="103.011711"><ele>1718.95</ele><time>2026-04-08T21:23:22.000Z</time></trkpt>
        <trkpt lat="29.0412208" lon="103.0117393"><ele>1721.16</ele><time>2026-04-08T21:23:36.000Z</time></trkpt>
        <trkpt lat="29.0411318" lon="103.0117893"><ele>1722.15</ele><time>2026-04-08T21:23:46.000Z</time></trkpt>
        <trkpt lat="29.0410555" lon="103.0118709"><ele>1723.02</ele><time>2026-04-08T21:23:58.000Z</time></trkpt>
        <trkpt lat="29.040985" lon="103.0119437"><ele>1724.79</ele><time>2026-04-08T21:24:12.000Z</time></trkpt>
        <trkpt lat="29.0408875" lon="103.0119757"><ele>1726.25</ele><time>2026-04-08T21:24:22.000Z</time></trkpt>
        <trkpt lat="29.0408076" lon="103.0119168"><ele>1727.52</ele><time>2026-04-08T21:24:30.000Z</time></trkpt>
        <trkpt lat="29.0407387" lon="103.0118247"><ele>1727.71</ele><time>2026-04-08T21:24:40.000Z</time></trkpt>
        <trkpt lat="29.0406747" lon="103.0117182"><ele>1728.33</ele><time>2026-04-08T21:24:50.000Z</time></trkpt>
        <trkpt lat="29.0406182" lon="103.011615"><ele>1730.08</ele><time>2026-04-08T21:25:00.000Z</time></trkpt>
        <trkpt lat="29.040526" lon="103.0115691"><ele>1731.49</ele><time>2026-04-08T21:25:12.000Z</time></trkpt>
        <trkpt lat="29.0404222" lon="103.0115796"><ele>1730.85</ele><time>2026-04-08T21:25:22.000Z</time></trkpt>
        <trkpt lat="29.0403175" lon="103.01163"><ele>1729.74</ele><time>2026-04-08T21:25:32.000Z</time></trkpt>
        <trkpt lat="29.0402186" lon="103.0116973"><ele>1729.81</ele><time>2026-04-08T21:25:42.000Z</time></trkpt>
        <trkpt lat="29.0401356" lon="103.0117657"><ele>1729.79</ele><time>2026-04-08T21:25:50.000Z</time></trkpt>
        <trkpt lat="29.0400518" lon="103.0118234"><ele>1730.75</ele><time>2026-04-08T21:25:58.000Z</time></trkpt>
        <trkpt lat="29.0399652" lon="103.0118784"><ele>1731.24</ele><time>2026-04-08T21:26:06.000Z</time></trkpt>
        <trkpt lat="29.0398867" lon="103.0119354"><ele>1732.38</ele><time>2026-04-08T21:26:14.000Z</time></trkpt>
        <trkpt lat="29.0398047" lon="103.0119879"><ele>1734.02</ele><time>2026-04-08T21:26:22.000Z</time></trkpt>
        <trkpt lat="29.0397096" lon="103.0120354"><ele>1734.64</ele><time>2026-04-08T21:26:32.000Z</time></trkpt>
        <trkpt lat="29.0396205" lon="103.0120853"><ele>1736.16</ele><time>2026-04-08T21:26:42.000Z</time></trkpt>
        <trkpt lat="29.0395266" lon="103.0121267"><ele>1737.07</ele><time>2026-04-08T21:26:52.000Z</time></trkpt>
        <trkpt lat="29.0394517" lon="103.0121904"><ele>1738.67</ele><time>2026-04-08T21:27:04.000Z</time></trkpt>
        <trkpt lat="29.0394368" lon="103.0122926"><ele>1740.07</ele><time>2026-04-08T21:27:42.000Z</time></trkpt>
        <trkpt lat="29.0394534" lon="103.0124021"><ele>1741.88</ele><time>2026-04-08T21:28:34.000Z</time></trkpt>
        <trkpt lat="29.0394679" lon="103.0125136"><ele>1742.04</ele><time>2026-04-08T21:28:46.000Z</time></trkpt>
        <trkpt lat="29.0394727" lon="103.0126414"><ele>1742.14</ele><time>2026-04-08T21:28:58.000Z</time></trkpt>
        <trkpt lat="29.0394687" lon="103.0127568"><ele>1742.3</ele><time>2026-04-08T21:29:06.000Z</time></trkpt>
        <trkpt lat="29.0394643" lon="103.0128688"><ele>1743.4</ele><time>2026-04-08T21:29:14.000Z</time></trkpt>
        <trkpt lat="29.039454" lon="103.0129734"><ele>1744.72</ele><time>2026-04-08T21:29:22.000Z</time></trkpt>
        <trkpt lat="29.0394533" lon="103.0130964"><ele>1745.57</ele><time>2026-04-08T21:29:32.000Z</time></trkpt>
        <trkpt lat="29.039465" lon="103.0132115"><ele>1747.1</ele><time>2026-04-08T21:29:40.000Z</time></trkpt>
        <trkpt lat="29.039444" lon="103.0133136"><ele>1749.12</ele><time>2026-04-08T21:29:48.000Z</time></trkpt>
        <trkpt lat="29.0394129" lon="103.0134175"><ele>1750.75</ele><time>2026-04-08T21:29:56.000Z</time></trkpt>
        <trkpt lat="29.0393708" lon="103.0135276"><ele>1752.5</ele><time>2026-04-08T21:30:06.000Z</time></trkpt>
        <trkpt lat="29.0393115" lon="103.0136205"><ele>1754.43</ele><time>2026-04-08T21:30:16.000Z</time></trkpt>
        <trkpt lat="29.0393061" lon="103.0137266"><ele>1756.6</ele><time>2026-04-08T21:30:42.000Z</time></trkpt>
        <trkpt lat="29.0393843" lon="103.013798"><ele>1758.57</ele><time>2026-04-08T21:30:52.000Z</time></trkpt>
        <trkpt lat="29.0394703" lon="103.0138622"><ele>1759.19</ele><time>2026-04-08T21:31:00.000Z</time></trkpt>
        <trkpt lat="29.0395319" lon="103.0139654"><ele>1759.51</ele><time>2026-04-08T21:31:10.000Z</time></trkpt>
        <trkpt lat="29.0395576" lon="103.0140741"><ele>1759.62</ele><time>2026-04-08T21:31:18.000Z</time></trkpt>
        <trkpt lat="29.039549" lon="103.0141809"><ele>1759.61</ele><time>2026-04-08T21:31:26.000Z</time></trkpt>
        <trkpt lat="29.0395073" lon="103.0142932"><ele>1760.03</ele><time>2026-04-08T21:31:36.000Z</time></trkpt>
        <trkpt lat="29.0394416" lon="103.0143842"><ele>1760.74</ele><time>2026-04-08T21:31:48.000Z</time></trkpt>
        <trkpt lat="29.0393705" lon="103.014471"><ele>1761.86</ele><time>2026-04-08T21:31:58.000Z</time></trkpt>
        <trkpt lat="29.0393222" lon="103.0145723"><ele>1763.51</ele><time>2026-04-08T21:32:10.000Z</time></trkpt>
        <trkpt lat="29.0393458" lon="103.0146667"><ele>1764.77</ele><time>2026-04-08T21:32:18.000Z</time></trkpt>
        <trkpt lat="29.039429" lon="103.0147446"><ele>1765.84</ele><time>2026-04-08T21:32:28.000Z</time></trkpt>
        <trkpt lat="29.0395115" lon="103.014824"><ele>1767.02</ele><time>2026-04-08T21:32:38.000Z</time></trkpt>
        <trkpt lat="29.0395515" lon="103.0149305"><ele>1769.24</ele><time>2026-04-08T21:33:02.000Z</time></trkpt>
        <trkpt lat="29.039555" lon="103.014959"><ele>1771.02</ele><time>2026-04-08T21:33:18.000Z</time></trkpt>
        <trkpt lat="29.0394959" lon="103.015013"><ele>1772.28</ele><time>2026-04-08T21:34:12.000Z</time></trkpt>
        <trkpt lat="29.0394218" lon="103.0150981"><ele>1772.92</ele><time>2026-04-08T21:34:28.000Z</time></trkpt>
        <trkpt lat="29.0393646" lon="103.0151968"><ele>1772.74</ele><time>2026-04-08T21:34:42.000Z</time></trkpt>
        <trkpt lat="29.0393566" lon="103.0153127"><ele>1773.35</ele><time>2026-04-08T21:34:56.000Z</time></trkpt>
        <trkpt lat="29.0393896" lon="103.0154285"><ele>1776.07</ele><time>2026-04-08T21:35:10.000Z</time></trkpt>
        <trkpt lat="29.0394302" lon="103.0155427"><ele>1778.21</ele><time>2026-04-08T21:35:20.000Z</time></trkpt>
        <trkpt lat="29.0394177" lon="103.0156521"><ele>1779.47</ele><time>2026-04-08T21:35:30.000Z</time></trkpt>
        <trkpt lat="29.0393386" lon="103.0157254"><ele>1781.43</ele><time>2026-04-08T21:35:40.000Z</time></trkpt>
        <trkpt lat="29.0392371" lon="103.0157722"><ele>1783.76</ele><time>2026-04-08T21:35:50.000Z</time></trkpt>
        <trkpt lat="29.0391372" lon="103.0158035"><ele>1786.14</ele><time>2026-04-08T21:35:58.000Z</time></trkpt>
        <trkpt lat="29.039064" lon="103.015865"><ele>1788.83</ele><time>2026-04-08T21:36:06.000Z</time></trkpt>
        <trkpt lat="29.0390133" lon="103.0159571"><ele>1790.76</ele><time>2026-04-08T21:36:18.000Z</time></trkpt>
        <trkpt lat="29.0390237" lon="103.0160654"><ele>1791.42</ele><time>2026-04-08T21:36:30.000Z</time></trkpt>
        <trkpt lat="29.039065" lon="103.0161663"><ele>1792.25</ele><time>2026-04-08T21:36:40.000Z</time></trkpt>
        <trkpt lat="29.0390279" lon="103.0162526"><ele>1793.81</ele><time>2026-04-08T21:36:52.000Z</time></trkpt>
        <trkpt lat="29.0389634" lon="103.0163265"><ele>1796.19</ele><time>2026-04-08T21:37:00.000Z</time></trkpt>
        <trkpt lat="29.0388779" lon="103.0163845"><ele>1800.47</ele><time>2026-04-08T21:37:10.000Z</time></trkpt>
        <trkpt lat="29.0387842" lon="103.0164192"><ele>1803.69</ele><time>2026-04-08T21:37:18.000Z</time></trkpt>
        <trkpt lat="29.0386882" lon="103.0164245"><ele>1807.62</ele><time>2026-04-08T21:37:26.000Z</time></trkpt>
        <trkpt lat="29.0385971" lon="103.0163954"><ele>1810.25</ele><time>2026-04-08T21:37:34.000Z</time></trkpt>
        <trkpt lat="29.0385133" lon="103.0164287"><ele>1812.23</ele><time>2026-04-08T21:37:46.000Z</time></trkpt>
        <trkpt lat="29.0384399" lon="103.0164947"><ele>1812.75</ele><time>2026-04-08T21:37:54.000Z</time></trkpt>
        <trkpt lat="29.0383574" lon="103.0165439"><ele>1813.89</ele><time>2026-04-08T21:38:04.000Z</time></trkpt>
        <trkpt lat="29.0382685" lon="103.0165493"><ele>1814.04</ele><time>2026-04-08T21:38:12.000Z</time></trkpt>
        <trkpt lat="29.0381911" lon="103.0164964"><ele>1813.07</ele><time>2026-04-08T21:38:20.000Z</time></trkpt>
        <trkpt lat="29.0381268" lon="103.0164109"><ele>1811.7</ele><time>2026-04-08T21:38:28.000Z</time></trkpt>
        <trkpt lat="29.0380523" lon="103.0163228"><ele>1811.33</ele><time>2026-04-08T21:38:38.000Z</time></trkpt>
        <trkpt lat="29.0379656" lon="103.0163018"><ele>1811.93</ele><time>2026-04-08T21:38:48.000Z</time></trkpt>
        <trkpt lat="29.0378826" lon="103.0163571"><ele>1812.2</ele><time>2026-04-08T21:38:58.000Z</time></trkpt>
        <trkpt lat="29.0378533" lon="103.0163917"><ele>1812.52</ele><time>2026-04-08T21:39:02.000Z</time></trkpt>
        <trkpt lat="29.0377828" lon="103.0164253"><ele>1812.45</ele><time>2026-04-08T21:39:14.000Z</time></trkpt>
        <trkpt lat="29.0377133" lon="103.0165039"><ele>1812.58</ele><time>2026-04-08T21:39:24.000Z</time></trkpt>
        <trkpt lat="29.0376478" lon="103.0165987"><ele>1812.89</ele><time>2026-04-08T21:39:34.000Z</time></trkpt>
        <trkpt lat="29.0375869" lon="103.0167056"><ele>1813.87</ele><time>2026-04-08T21:39:44.000Z</time></trkpt>
        <trkpt lat="29.0375256" lon="103.0168148"><ele>1813.46</ele><time>2026-04-08T21:39:52.000Z</time></trkpt>
        <trkpt lat="29.0374558" lon="103.016922"><ele>1813.12</ele><time>2026-04-08T21:40:02.000Z</time></trkpt>
        <trkpt lat="29.0373885" lon="103.0170104"><ele>1812.33</ele><time>2026-04-08T21:40:10.000Z</time></trkpt>
        <trkpt lat="29.0373269" lon="103.0170966"><ele>1811.89</ele><time>2026-04-08T21:40:18.000Z</time></trkpt>
        <trkpt lat="29.0372615" lon="103.017185"><ele>1812.03</ele><time>2026-04-08T21:40:26.000Z</time></trkpt>
        <trkpt lat="29.0371906" lon="103.017266"><ele>1812.63</ele><time>2026-04-08T21:40:34.000Z</time></trkpt>
        <trkpt lat="29.0371115" lon="103.0173284"><ele>1812.31</ele><time>2026-04-08T21:40:42.000Z</time></trkpt>
        <trkpt lat="29.0370245" lon="103.0174007"><ele>1812.95</ele><time>2026-04-08T21:40:50.000Z</time></trkpt>
        <trkpt lat="29.0369427" lon="103.0174657"><ele>1813.78</ele><time>2026-04-08T21:40:58.000Z</time></trkpt>
        <trkpt lat="29.0368638" lon="103.0175204"><ele>1813.78</ele><time>2026-04-08T21:41:06.000Z</time></trkpt>
        <trkpt lat="29.036781" lon="103.0175721"><ele>1813.9</ele><time>2026-04-08T21:41:14.000Z</time></trkpt>
        <trkpt lat="29.0367027" lon="103.0176277"><ele>1813.89</ele><time>2026-04-08T21:41:22.000Z</time></trkpt>
        <trkpt lat="29.0366003" lon="103.0176542"><ele>1814.84</ele><time>2026-04-08T21:41:32.000Z</time></trkpt>
        <trkpt lat="29.0364928" lon="103.0176467"><ele>1815.65</ele><time>2026-04-08T21:41:40.000Z</time></trkpt>
        <trkpt lat="29.036395" lon="103.0176308"><ele>1816.34</ele><time>2026-04-08T21:41:48.000Z</time></trkpt>
        <trkpt lat="29.03629" lon="103.0175943"><ele>1817.08</ele><time>2026-04-08T21:41:58.000Z</time></trkpt>
        <trkpt lat="29.0361909" lon="103.0175562"><ele>1817.55</ele><time>2026-04-08T21:42:08.000Z</time></trkpt>
        <trkpt lat="29.036084" lon="103.0175444"><ele>1817.14</ele><time>2026-04-08T21:42:18.000Z</time></trkpt>
        <trkpt lat="29.0360068" lon="103.0175601"><ele>1817.16</ele><time>2026-04-08T21:42:26.000Z</time></trkpt>
        <trkpt lat="29.0359149" lon="103.0176033"><ele>1817.51</ele><time>2026-04-08T21:43:08.000Z</time></trkpt>
        <trkpt lat="29.0358124" lon="103.0176417"><ele>1819.22</ele><time>2026-04-08T21:43:16.000Z</time></trkpt>
        <trkpt lat="29.0357144" lon="103.0176783"><ele>1820.14</ele><time>2026-04-08T21:43:25.000Z</time></trkpt>
        <trkpt lat="29.0356143" lon="103.0177258"><ele>1820.43</ele><time>2026-04-08T21:43:34.000Z</time></trkpt>
        <trkpt lat="29.0355244" lon="103.0177634"><ele>1820.55</ele><time>2026-04-08T21:43:42.000Z</time></trkpt>
        <trkpt lat="29.0354323" lon="103.0178136"><ele>1820.57</ele><time>2026-04-08T21:43:52.000Z</time></trkpt>
        <trkpt lat="29.0353424" lon="103.0178812"><ele>1820.36</ele><time>2026-04-08T21:44:02.000Z</time></trkpt>
        <trkpt lat="29.0352621" lon="103.0179607"><ele>1820.19</ele><time>2026-04-08T21:44:12.000Z</time></trkpt>
        <trkpt lat="29.0352523" lon="103.0180613"><ele>1819.7</ele><time>2026-04-08T21:44:20.000Z</time></trkpt>
        <trkpt lat="29.0353088" lon="103.0181497"><ele>1819.37</ele><time>2026-04-08T21:44:28.000Z</time></trkpt>
        <trkpt lat="29.0354056" lon="103.0182129"><ele>1819.32</ele><time>2026-04-08T21:44:38.000Z</time></trkpt>
        <trkpt lat="29.0355101" lon="103.0182567"><ele>1819.05</ele><time>2026-04-08T21:44:46.000Z</time></trkpt>
        <trkpt lat="29.0356228" lon="103.0182974"><ele>1818.97</ele><time>2026-04-08T21:44:54.000Z</time></trkpt>
        <trkpt lat="29.0357123" lon="103.0183527"><ele>1818.49</ele><time>2026-04-08T21:45:02.000Z</time></trkpt>
        <trkpt lat="29.035791" lon="103.018414"><ele>1817.9</ele><time>2026-04-08T21:45:10.000Z</time></trkpt>
        <trkpt lat="29.0358211" lon="103.0184874"><ele>1816.87</ele><time>2026-04-08T21:45:18.000Z</time></trkpt>
        <trkpt lat="29.0358281" lon="103.0186019"><ele>1816.93</ele><time>2026-04-08T21:45:30.000Z</time></trkpt>
        <trkpt lat="29.0358188" lon="103.0187319"><ele>1817.33</ele><time>2026-04-08T21:45:40.000Z</time></trkpt>
        <trkpt lat="29.0357982" lon="103.0188473"><ele>1817.25</ele><time>2026-04-08T21:45:48.000Z</time></trkpt>
        <trkpt lat="29.0357908" lon="103.0189727"><ele>1816.42</ele><time>2026-04-08T21:45:58.000Z</time></trkpt>
        <trkpt lat="29.0357742" lon="103.0190988"><ele>1816.47</ele><time>2026-04-08T21:46:06.000Z</time></trkpt>
        <trkpt lat="29.0357585" lon="103.0192141"><ele>1815.9</ele><time>2026-04-08T21:46:16.000Z</time></trkpt>
        <trkpt lat="29.0358004" lon="103.0193218"><ele>1815.89</ele><time>2026-04-08T21:46:26.000Z</time></trkpt>
        <trkpt lat="29.0358607" lon="103.0194153"><ele>1815.55</ele><time>2026-04-08T21:46:34.000Z</time></trkpt>
        <trkpt lat="29.0359208" lon="103.0195255"><ele>1815.35</ele><time>2026-04-08T21:46:44.000Z</time></trkpt>
        <trkpt lat="29.0359688" lon="103.0196316"><ele>1815.42</ele><time>2026-04-08T21:46:52.000Z</time></trkpt>
        <trkpt lat="29.0360057" lon="103.0197394"><ele>1815.85</ele><time>2026-04-08T21:47:00.000Z</time></trkpt>
        <trkpt lat="29.0360498" lon="103.01979"><ele>1816.67</ele><time>2026-04-08T21:47:06.000Z</time></trkpt>
        <trkpt lat="29.036004" lon="103.0198764"><ele>1819.28</ele><time>2026-04-08T21:48:26.000Z</time></trkpt>
        <trkpt lat="29.0359418" lon="103.0199535"><ele>1819.5</ele><time>2026-04-08T21:48:34.000Z</time></trkpt>
        <trkpt lat="29.0358623" lon="103.0200296"><ele>1819.82</ele><time>2026-04-08T21:48:44.000Z</time></trkpt>
        <trkpt lat="29.035776" lon="103.0201"><ele>1820.71</ele><time>2026-04-08T21:48:54.000Z</time></trkpt>
        <trkpt lat="29.0356931" lon="103.0201647"><ele>1821.08</ele><time>2026-04-08T21:49:04.000Z</time></trkpt>
        <trkpt lat="29.0356128" lon="103.0202423"><ele>1821.23</ele><time>2026-04-08T21:49:14.000Z</time></trkpt>
        <trkpt lat="29.0355316" lon="103.0203211"><ele>1822.05</ele><time>2026-04-08T21:49:24.000Z</time></trkpt>
        <trkpt lat="29.0354687" lon="103.0204142"><ele>1822.93</ele><time>2026-04-08T21:49:34.000Z</time></trkpt>
        <trkpt lat="29.0354024" lon="103.0205132"><ele>1823.72</ele><time>2026-04-08T21:49:44.000Z</time></trkpt>
        <trkpt lat="29.0353368" lon="103.0206071"><ele>1824.61</ele><time>2026-04-08T21:49:54.000Z</time></trkpt>
        <trkpt lat="29.0352664" lon="103.0206911"><ele>1825.66</ele><time>2026-04-08T21:50:04.000Z</time></trkpt>
        <trkpt lat="29.0351871" lon="103.0207574"><ele>1826.83</ele><time>2026-04-08T21:50:14.000Z</time></trkpt>
        <trkpt lat="29.0351135" lon="103.0208279"><ele>1827.78</ele><time>2026-04-08T21:50:24.000Z</time></trkpt>
        <trkpt lat="29.0350329" lon="103.0208941"><ele>1829.31</ele><time>2026-04-08T21:50:34.000Z</time></trkpt>
        <trkpt lat="29.0349502" lon="103.0209432"><ele>1830.08</ele><time>2026-04-08T21:50:44.000Z</time></trkpt>
        <trkpt lat="29.0349216" lon="103.0209494"><ele>1831.51</ele><time>2026-04-08T21:50:48.000Z</time></trkpt>
        <trkpt lat="29.03486" lon="103.0209895"><ele>1832.67</ele><time>2026-04-08T21:51:20.000Z</time></trkpt>
        <trkpt lat="29.0347723" lon="103.021022"><ele>1834.78</ele><time>2026-04-08T21:51:34.000Z</time></trkpt>
        <trkpt lat="29.0346852" lon="103.0210702"><ele>1836.21</ele><time>2026-04-08T21:51:46.000Z</time></trkpt>
        <trkpt lat="29.034589" lon="103.021108"><ele>1838.18</ele><time>2026-04-08T21:51:58.000Z</time></trkpt>
        <trkpt lat="29.0344996" lon="103.0211452"><ele>1839.73</ele><time>2026-04-08T21:52:08.000Z</time></trkpt>
        <trkpt lat="29.0343983" lon="103.0211845"><ele>1841.01</ele><time>2026-04-08T21:52:18.000Z</time></trkpt>
        <trkpt lat="29.0343019" lon="103.0212208"><ele>1842.2</ele><time>2026-04-08T21:52:26.000Z</time></trkpt>
        <trkpt lat="29.0342071" lon="103.021275"><ele>1843.33</ele><time>2026-04-08T21:52:36.000Z</time></trkpt>
        <trkpt lat="29.03413" lon="103.0213579"><ele>1844.49</ele><time>2026-04-08T21:52:46.000Z</time></trkpt>
        <trkpt lat="29.0340953" lon="103.0214595"><ele>1845.67</ele><time>2026-04-08T21:52:56.000Z</time></trkpt>
        <trkpt lat="29.034105" lon="103.0215735"><ele>1846.64</ele><time>2026-04-08T21:53:08.000Z</time></trkpt>
        <trkpt lat="29.0341405" lon="103.02168"><ele>1848.62</ele><time>2026-04-08T21:53:20.000Z</time></trkpt>
        <trkpt lat="29.0341865" lon="103.0217843"><ele>1850.1</ele><time>2026-04-08T21:53:30.000Z</time></trkpt>
        <trkpt lat="29.0342106" lon="103.0218954"><ele>1851.77</ele><time>2026-04-08T21:53:42.000Z</time></trkpt>
        <trkpt lat="29.0341929" lon="103.0220078"><ele>1853.64</ele><time>2026-04-08T21:53:54.000Z</time></trkpt>
        <trkpt lat="29.0341197" lon="103.0220618"><ele>1854.49</ele><time>2026-04-08T21:54:04.000Z</time></trkpt>
        <trkpt lat="29.0340272" lon="103.0220427"><ele>1855.93</ele><time>2026-04-08T21:54:16.000Z</time></trkpt>
        <trkpt lat="29.0339365" lon="103.0219634"><ele>1859.41</ele><time>2026-04-08T21:54:28.000Z</time></trkpt>
        <trkpt lat="29.0338659" lon="103.0218561"><ele>1862.19</ele><time>2026-04-08T21:54:40.000Z</time></trkpt>
        <trkpt lat="29.0338013" lon="103.0217443"><ele>1863.76</ele><time>2026-04-08T21:54:52.000Z</time></trkpt>
        <trkpt lat="29.0337415" lon="103.0216469"><ele>1864.31</ele><time>2026-04-08T21:55:02.000Z</time></trkpt>
        <trkpt lat="29.0336742" lon="103.0215609"><ele>1864.71</ele><time>2026-04-08T21:55:14.000Z</time></trkpt>
        <trkpt lat="29.033602" lon="103.0214865"><ele>1866.25</ele><time>2026-04-08T21:55:26.000Z</time></trkpt>
        <trkpt lat="29.0335395" lon="103.0213935"><ele>1869.5</ele><time>2026-04-08T21:55:36.000Z</time></trkpt>
        <trkpt lat="29.0334707" lon="103.0213028"><ele>1872.23</ele><time>2026-04-08T21:55:46.000Z</time></trkpt>
        <trkpt lat="29.0334411" lon="103.0211928"><ele>1874.59</ele><time>2026-04-08T21:55:56.000Z</time></trkpt>
        <trkpt lat="29.0334768" lon="103.0210937"><ele>1877.29</ele><time>2026-04-08T21:56:04.000Z</time></trkpt>
        <trkpt lat="29.0335409" lon="103.0210069"><ele>1879.46</ele><time>2026-04-08T21:56:12.000Z</time></trkpt>
        <trkpt lat="29.0336317" lon="103.0209466"><ele>1881.48</ele><time>2026-04-08T21:56:22.000Z</time></trkpt>
        <trkpt lat="29.0337335" lon="103.0209095"><ele>1883.3</ele><time>2026-04-08T21:56:32.000Z</time></trkpt>
        <trkpt lat="29.0338356" lon="103.0208862"><ele>1884.66</ele><time>2026-04-08T21:56:42.000Z</time></trkpt>
        <trkpt lat="29.0339249" lon="103.0208512"><ele>1887.23</ele><time>2026-04-08T21:57:04.000Z</time></trkpt>
        <trkpt lat="29.0339075" lon="103.020766"><ele>1888.18</ele><time>2026-04-08T21:57:14.000Z</time></trkpt>
        <trkpt lat="29.0338312" lon="103.0207398"><ele>1888.3</ele><time>2026-04-08T21:57:24.000Z</time></trkpt>
        <trkpt lat="29.0337338" lon="103.0207613"><ele>1888.2</ele><time>2026-04-08T21:57:36.000Z</time></trkpt>
        <trkpt lat="29.0336263" lon="103.0208065"><ele>1888.17</ele><time>2026-04-08T21:57:48.000Z</time></trkpt>
        <trkpt lat="29.0335198" lon="103.0208346"><ele>1887.87</ele><time>2026-04-08T21:57:58.000Z</time></trkpt>
        <trkpt lat="29.0334198" lon="103.0208626"><ele>1888.12</ele><time>2026-04-08T21:58:08.000Z</time></trkpt>
        <trkpt lat="29.033318" lon="103.0209065"><ele>1887.94</ele><time>2026-04-08T21:58:18.000Z</time></trkpt>
        <trkpt lat="29.0332286" lon="103.0209565"><ele>1888.37</ele><time>2026-04-08T21:58:26.000Z</time></trkpt>
        <trkpt lat="29.0331833" lon="103.0209909"><ele>1889.08</ele><time>2026-04-08T21:58:34.000Z</time></trkpt>
        <trkpt lat="29.0331258" lon="103.0210643"><ele>1889.8</ele><time>2026-04-08T21:58:56.000Z</time></trkpt>
        <trkpt lat="29.0330793" lon="103.0211606"><ele>1891.37</ele><time>2026-04-08T21:59:10.000Z</time></trkpt>
        <trkpt lat="29.0330337" lon="103.0212658"><ele>1893.61</ele><time>2026-04-08T21:59:24.000Z</time></trkpt>
        <trkpt lat="29.0329643" lon="103.0213457"><ele>1895.36</ele><time>2026-04-08T21:59:34.000Z</time></trkpt>
        <trkpt lat="29.0328723" lon="103.0213813"><ele>1896.34</ele><time>2026-04-08T21:59:44.000Z</time></trkpt>
        <trkpt lat="29.0327734" lon="103.0213739"><ele>1896.92</ele><time>2026-04-08T21:59:54.000Z</time></trkpt>
        <trkpt lat="29.0326746" lon="103.0213207"><ele>1897.3</ele><time>2026-04-08T22:00:04.000Z</time></trkpt>
        <trkpt lat="29.0325887" lon="103.0212373"><ele>1897.99</ele><time>2026-04-08T22:00:14.000Z</time></trkpt>
        <trkpt lat="29.0325339" lon="103.0211896"><ele>1899.31</ele><time>2026-04-08T22:00:22.000Z</time></trkpt>
        <trkpt lat="29.0324821" lon="103.0212557"><ele>1900.69</ele><time>2026-04-08T22:00:54.000Z</time></trkpt>
        <trkpt lat="29.0324317" lon="103.0213592"><ele>1901.4</ele><time>2026-04-08T22:01:04.000Z</time></trkpt>
        <trkpt lat="29.0324036" lon="103.0214741"><ele>1902.23</ele><time>2026-04-08T22:01:44.000Z</time></trkpt>
        <trkpt lat="29.0323722" lon="103.021595"><ele>1902.16</ele><time>2026-04-08T22:01:54.000Z</time></trkpt>
        <trkpt lat="29.0323323" lon="103.0217157"><ele>1902.3</ele><time>2026-04-08T22:02:04.000Z</time></trkpt>
        <trkpt lat="29.0322836" lon="103.0218271"><ele>1902.67</ele><time>2026-04-08T22:02:14.000Z</time></trkpt>
        <trkpt lat="29.0322196" lon="103.0219345"><ele>1902.93</ele><time>2026-04-08T22:02:22.000Z</time></trkpt>
        <trkpt lat="29.032136" lon="103.0220056"><ele>1903.82</ele><time>2026-04-08T22:02:30.000Z</time></trkpt>
        <trkpt lat="29.0320932" lon="103.0220276"><ele>1904.1</ele><time>2026-04-08T22:02:36.000Z</time></trkpt>
        <trkpt lat="29.0320206" lon="103.022061"><ele>1904.16</ele><time>2026-04-08T22:02:50.000Z</time></trkpt>
        <trkpt lat="29.0319627" lon="103.0221398"><ele>1904.88</ele><time>2026-04-08T22:03:02.000Z</time></trkpt>
        <trkpt lat="29.0318922" lon="103.0222066"><ele>1905.73</ele><time>2026-04-08T22:03:14.000Z</time></trkpt>
        <trkpt lat="29.031826" lon="103.0222869"><ele>1906.62</ele><time>2026-04-08T22:03:30.000Z</time></trkpt>
        <trkpt lat="29.031756" lon="103.0223618"><ele>1907.02</ele><time>2026-04-08T22:03:40.000Z</time></trkpt>
        <trkpt lat="29.0316867" lon="103.0224465"><ele>1906.9</ele><time>2026-04-08T22:03:54.000Z</time></trkpt>
        <trkpt lat="29.0316116" lon="103.0225121"><ele>1907.1</ele><time>2026-04-08T22:04:08.000Z</time></trkpt>
        <trkpt lat="29.0315298" lon="103.0225765"><ele>1908.22</ele><time>2026-04-08T22:04:22.000Z</time></trkpt>
        <trkpt lat="29.0314611" lon="103.0226554"><ele>1910.19</ele><time>2026-04-08T22:04:32.000Z</time></trkpt>
        <trkpt lat="29.0313975" lon="103.0227393"><ele>1912.19</ele><time>2026-04-08T22:04:42.000Z</time></trkpt>
        <trkpt lat="29.0313427" lon="103.0228239"><ele>1913.9</ele><time>2026-04-08T22:04:56.000Z</time></trkpt>
        <trkpt lat="29.0312878" lon="103.0229206"><ele>1915.07</ele><time>2026-04-08T22:05:10.000Z</time></trkpt>
        <trkpt lat="29.0312512" lon="103.0230201"><ele>1915.4</ele><time>2026-04-08T22:05:18.000Z</time></trkpt>
        <trkpt lat="29.0312258" lon="103.0231377"><ele>1914.91</ele><time>2026-04-08T22:05:28.000Z</time></trkpt>
        <trkpt lat="29.0311803" lon="103.0232478"><ele>1914.13</ele><time>2026-04-08T22:05:38.000Z</time></trkpt>
        <trkpt lat="29.0311292" lon="103.0233419"><ele>1913.26</ele><time>2026-04-08T22:05:46.000Z</time></trkpt>
        <trkpt lat="29.031066" lon="103.0234219"><ele>1912.58</ele><time>2026-04-08T22:05:56.000Z</time></trkpt>
        <trkpt lat="29.0309916" lon="103.0235026"><ele>1911.95</ele><time>2026-04-08T22:06:10.000Z</time></trkpt>
        <trkpt lat="29.0309241" lon="103.023583"><ele>1911.07</ele><time>2026-04-08T22:06:20.000Z</time></trkpt>
        <trkpt lat="29.0308429" lon="103.023666"><ele>1910.22</ele><time>2026-04-08T22:06:32.000Z</time></trkpt>
        <trkpt lat="29.0307684" lon="103.023737"><ele>1909.44</ele><time>2026-04-08T22:06:38.000Z</time></trkpt>
        <trkpt lat="29.030702" lon="103.0238252"><ele>1908.41</ele><time>2026-04-08T22:06:46.000Z</time></trkpt>
        <trkpt lat="29.0306173" lon="103.0238875"><ele>1907.64</ele><time>2026-04-08T22:06:54.000Z</time></trkpt>
        <trkpt lat="29.0305411" lon="103.0239533"><ele>1907.36</ele><time>2026-04-08T22:07:02.000Z</time></trkpt>
        <trkpt lat="29.0304662" lon="103.0240338"><ele>1907.82</ele><time>2026-04-08T22:07:10.000Z</time></trkpt>
        <trkpt lat="29.0303921" lon="103.0241234"><ele>1908.31</ele><time>2026-04-08T22:07:18.000Z</time></trkpt>
        <trkpt lat="29.0303637" lon="103.024155"><ele>1908.61</ele><time>2026-04-08T22:07:20.000Z</time></trkpt>
        <trkpt lat="29.0303065" lon="103.0242074"><ele>1908.88</ele><time>2026-04-08T22:07:38.000Z</time></trkpt>
        <trkpt lat="29.0302292" lon="103.0242566"><ele>1909.79</ele><time>2026-04-08T22:07:50.000Z</time></trkpt>
        <trkpt lat="29.0301341" lon="103.0243094"><ele>1910.67</ele><time>2026-04-08T22:08:02.000Z</time></trkpt>
        <trkpt lat="29.0300423" lon="103.0243514"><ele>1911.71</ele><time>2026-04-08T22:08:12.000Z</time></trkpt>
        <trkpt lat="29.0299374" lon="103.0243705"><ele>1912.49</ele><time>2026-04-08T22:08:22.000Z</time></trkpt>
        <trkpt lat="29.0298497" lon="103.0243779"><ele>1912.48</ele><time>2026-04-08T22:08:36.000Z</time></trkpt>
        <trkpt lat="29.0298308" lon="103.0244608"><ele>1912.88</ele><time>2026-04-08T22:09:10.000Z</time></trkpt>
        <trkpt lat="29.0298308" lon="103.0244608"><ele>1912.88</ele><time>2026-04-08T22:09:13.000Z</time></trkpt>
        <trkpt lat="29.0298308" lon="103.0244608"><ele>1912.88</ele><time>2026-04-08T22:16:02.000Z</time></trkpt>
        <trkpt lat="29.0298308" lon="103.0244608"><ele>1912.88</ele><time>2026-04-08T22:16:25.000Z</time></trkpt>
        <trkpt lat="29.0296383" lon="103.0244485"><ele>1911.44</ele><time>2026-04-08T23:10:54.000Z</time></trkpt>
      </trkseg>
      <trkseg>
        <trkpt lat="29.0298681" lon="103.0245487"><ele>1913.33</ele><time>2026-04-08T23:35:56.000Z</time></trkpt>
        <trkpt lat="29.0299306" lon="103.0245007"><ele>1913.33</ele><time>2026-04-08T23:36:07.000Z</time></trkpt>
        <trkpt lat="29.0300079" lon="103.0244252"><ele>1912.44</ele><time>2026-04-08T23:36:17.000Z</time></trkpt>
        <trkpt lat="29.0300985" lon="103.0243628"><ele>1912.4</ele><time>2026-04-08T23:36:25.000Z</time></trkpt>
        <trkpt lat="29.0302017" lon="103.0243068"><ele>1912.33</ele><time>2026-04-08T23:36:29.000Z</time></trkpt>
        <trkpt lat="29.0303" lon="103.024264"><ele>1911.44</ele><time>2026-04-08T23:36:33.000Z</time></trkpt>
        <trkpt lat="29.0304125" lon="103.0241749"><ele>1910.23</ele><time>2026-04-08T23:36:37.000Z</time></trkpt>
        <trkpt lat="29.0305001" lon="103.0240512"><ele>1909.06</ele><time>2026-04-08T23:36:41.000Z</time></trkpt>
        <trkpt lat="29.0305749" lon="103.0239447"><ele>1908.48</ele><time>2026-04-08T23:36:45.000Z</time></trkpt>
        <trkpt lat="29.0306474" lon="103.0238654"><ele>1907.76</ele><time>2026-04-08T23:36:49.000Z</time></trkpt>
        <trkpt lat="29.0307306" lon="103.0237989"><ele>1906.88</ele><time>2026-04-08T23:36:53.000Z</time></trkpt>
        <trkpt lat="29.0308126" lon="103.0237239"><ele>1906.68</ele><time>2026-04-08T23:36:57.000Z</time></trkpt>
        <trkpt lat="29.0308844" lon="103.023648"><ele>1907.57</ele><time>2026-04-08T23:37:01.000Z</time></trkpt>
        <trkpt lat="29.0309505" lon="103.0235716"><ele>1908.29</ele><time>2026-04-08T23:37:05.000Z</time></trkpt>
        <trkpt lat="29.0310194" lon="103.0234939"><ele>1908.1</ele><time>2026-04-08T23:37:09.000Z</time></trkpt>
        <trkpt lat="29.0310765" lon="103.0234053"><ele>1909.06</ele><time>2026-04-08T23:37:19.000Z</time></trkpt>
        <trkpt lat="29.0311358" lon="103.0233205"><ele>1909.85</ele><time>2026-04-08T23:37:27.000Z</time></trkpt>
        <trkpt lat="29.031202" lon="103.0232375"><ele>1911.12</ele><time>2026-04-08T23:37:37.000Z</time></trkpt>
        <trkpt lat="29.0312605" lon="103.0231416"><ele>1912.14</ele><time>2026-04-08T23:37:47.000Z</time></trkpt>
        <trkpt lat="29.031287" lon="103.0230293"><ele>1912.64</ele><time>2026-04-08T23:37:55.000Z</time></trkpt>
        <trkpt lat="29.031313" lon="103.0229188"><ele>1913.55</ele><time>2026-04-08T23:38:05.000Z</time></trkpt>
        <trkpt lat="29.0313791" lon="103.0228313"><ele>1913.91</ele><time>2026-04-08T23:38:19.000Z</time></trkpt>
        <trkpt lat="29.0314287" lon="103.0227378"><ele>1914.27</ele><time>2026-04-08T23:38:31.000Z</time></trkpt>
        <trkpt lat="29.0314867" lon="103.0226447"><ele>1915.24</ele><time>2026-04-08T23:38:41.000Z</time></trkpt>
        <trkpt lat="29.0315497" lon="103.0225661"><ele>1915.39</ele><time>2026-04-08T23:38:49.000Z</time></trkpt>
        <trkpt lat="29.0316226" lon="103.0224957"><ele>1913.89</ele><time>2026-04-08T23:38:57.000Z</time></trkpt>
        <trkpt lat="29.0317036" lon="103.0224318"><ele>1912.41</ele><time>2026-04-08T23:39:07.000Z</time></trkpt>
        <trkpt lat="29.0317923" lon="103.0223586"><ele>1909.89</ele><time>2026-04-08T23:39:17.000Z</time></trkpt>
        <trkpt lat="29.0318717" lon="103.0222687"><ele>1907.82</ele><time>2026-04-08T23:39:27.000Z</time></trkpt>
        <trkpt lat="29.0319458" lon="103.022177"><ele>1905.73</ele><time>2026-04-08T23:39:35.000Z</time></trkpt>
        <trkpt lat="29.0320222" lon="103.0220977"><ele>1903.79</ele><time>2026-04-08T23:39:43.000Z</time></trkpt>
        <trkpt lat="29.0320849" lon="103.0220106"><ele>1902.3</ele><time>2026-04-08T23:39:51.000Z</time></trkpt>
        <trkpt lat="29.0321607" lon="103.021947"><ele>1900.77</ele><time>2026-04-08T23:39:59.000Z</time></trkpt>
        <trkpt lat="29.0322325" lon="103.0218711"><ele>1899.32</ele><time>2026-04-08T23:40:07.000Z</time></trkpt>
        <trkpt lat="29.0322937" lon="103.021778"><ele>1898.49</ele><time>2026-04-08T23:40:15.000Z</time></trkpt>
        <trkpt lat="29.0323556" lon="103.0216969"><ele>1897.98</ele><time>2026-04-08T23:40:23.000Z</time></trkpt>
        <trkpt lat="29.0323556" lon="103.0216969"><ele>1897.98</ele><time>2026-04-08T23:40:26.000Z</time></trkpt>
      </trkseg>
      <trkseg>
        <trkpt lat="29.0323925" lon="103.0215745"><ele>1897.78</ele><time>2026-04-08T23:41:11.000Z</time></trkpt>
        <trkpt lat="29.0323925" lon="103.0215745"><ele>1897.78</ele><time>2026-04-08T23:41:21.000Z</time></trkpt>
        <trkpt lat="29.0324282" lon="103.0214772"><ele>1896.9</ele><time>2026-04-08T23:41:31.000Z</time></trkpt>
        <trkpt lat="29.0324619" lon="103.0213688"><ele>1896.41</ele><time>2026-04-08T23:41:39.000Z</time></trkpt>
        <trkpt lat="29.0325026" lon="103.0212678"><ele>1895.74</ele><time>2026-04-08T23:41:43.000Z</time></trkpt>
        <trkpt lat="29.0325658" lon="103.0211836"><ele>1895.04</ele><time>2026-04-08T23:41:47.000Z</time></trkpt>
        <trkpt lat="29.0325739" lon="103.02117"><ele>1894.85</ele><time>2026-04-08T23:41:51.000Z</time></trkpt>
        <trkpt lat="29.0326645" lon="103.0212211"><ele>1895.01</ele><time>2026-04-08T23:42:09.000Z</time></trkpt>
        <trkpt lat="29.0327877" lon="103.0213012"><ele>1894.73</ele><time>2026-04-08T23:42:13.000Z</time></trkpt>
        <trkpt lat="29.0329483" lon="103.0212672"><ele>1893.94</ele><time>2026-04-08T23:42:19.000Z</time></trkpt>
        <trkpt lat="29.0330705" lon="103.0212006"><ele>1892.15</ele><time>2026-04-08T23:42:23.000Z</time></trkpt>
        <trkpt lat="29.0331376" lon="103.0211094"><ele>1890.61</ele><time>2026-04-08T23:42:27.000Z</time></trkpt>
        <trkpt lat="29.0332033" lon="103.0209849"><ele>1889.21</ele><time>2026-04-08T23:42:33.000Z</time></trkpt>
        <trkpt lat="29.033285" lon="103.020891"><ele>1888.3</ele><time>2026-04-08T23:42:39.000Z</time></trkpt>
        <trkpt lat="29.0333701" lon="103.0208261"><ele>1886.61</ele><time>2026-04-08T23:42:47.000Z</time></trkpt>
        <trkpt lat="29.033461" lon="103.0207777"><ele>1884.46</ele><time>2026-04-08T23:42:55.000Z</time></trkpt>
        <trkpt lat="29.03355" lon="103.0207429"><ele>1882.48</ele><time>2026-04-08T23:43:03.000Z</time></trkpt>
        <trkpt lat="29.033652" lon="103.0207404"><ele>1880.95</ele><time>2026-04-08T23:43:11.000Z</time></trkpt>
        <trkpt lat="29.0337453" lon="103.0207262"><ele>1880.46</ele><time>2026-04-08T23:43:19.000Z</time></trkpt>
        <trkpt lat="29.0338489" lon="103.0207022"><ele>1880.45</ele><time>2026-04-08T23:43:29.000Z</time></trkpt>
        <trkpt lat="29.0339382" lon="103.0207441"><ele>1879.53</ele><time>2026-04-08T23:43:37.000Z</time></trkpt>
        <trkpt lat="29.0339358" lon="103.0208551"><ele>1878.68</ele><time>2026-04-08T23:43:45.000Z</time></trkpt>
        <trkpt lat="29.0338514" lon="103.0209356"><ele>1878.71</ele><time>2026-04-08T23:43:53.000Z</time></trkpt>
        <trkpt lat="29.0337399" lon="103.0209767"><ele>1878.28</ele><time>2026-04-08T23:44:01.000Z</time></trkpt>
        <trkpt lat="29.0336206" lon="103.0209934"><ele>1877.72</ele><time>2026-04-08T23:44:09.000Z</time></trkpt>
        <trkpt lat="29.0335059" lon="103.0210202"><ele>1876.06</ele><time>2026-04-08T23:44:17.000Z</time></trkpt>
        <trkpt lat="29.0334449" lon="103.0210965"><ele>1873.82</ele><time>2026-04-08T23:44:23.000Z</time></trkpt>
        <trkpt lat="29.0334622" lon="103.0212037"><ele>1871.8</ele><time>2026-04-08T23:44:31.000Z</time></trkpt>
        <trkpt lat="29.0335221" lon="103.0213108"><ele>1871.4</ele><time>2026-04-08T23:44:41.000Z</time></trkpt>
        <trkpt lat="29.0336057" lon="103.0214037"><ele>1870.21</ele><time>2026-04-08T23:44:51.000Z</time></trkpt>
        <trkpt lat="29.0336861" lon="103.0214832"><ele>1868.76</ele><time>2026-04-08T23:44:59.000Z</time></trkpt>
        <trkpt lat="29.0337462" lon="103.021568"><ele>1867.78</ele><time>2026-04-08T23:45:07.000Z</time></trkpt>
        <trkpt lat="29.0337968" lon="103.0216697"><ele>1866.26</ele><time>2026-04-08T23:45:17.000Z</time></trkpt>
        <trkpt lat="29.0338581" lon="103.0217525"><ele>1863.78</ele><time>2026-04-08T23:45:25.000Z</time></trkpt>
        <trkpt lat="29.0339189" lon="103.0218422"><ele>1860.65</ele><time>2026-04-08T23:45:33.000Z</time></trkpt>
        <trkpt lat="29.0339607" lon="103.0219564"><ele>1858.39</ele><time>2026-04-08T23:45:43.000Z</time></trkpt>
        <trkpt lat="29.0340017" lon="103.0220539"><ele>1855.74</ele><time>2026-04-08T23:45:51.000Z</time></trkpt>
        <trkpt lat="29.0340737" lon="103.0221168"><ele>1854.92</ele><time>2026-04-08T23:46:03.000Z</time></trkpt>
        <trkpt lat="29.0341704" lon="103.0221035"><ele>1855.19</ele><time>2026-04-08T23:46:15.000Z</time></trkpt>
        <trkpt lat="29.034248" lon="103.0220328"><ele>1854.72</ele><time>2026-04-08T23:46:23.000Z</time></trkpt>
        <trkpt lat="29.0342764" lon="103.0219241"><ele>1853.46</ele><time>2026-04-08T23:46:29.000Z</time></trkpt>
        <trkpt lat="29.0342677" lon="103.021804"><ele>1851.94</ele><time>2026-04-08T23:46:35.000Z</time></trkpt>
        <trkpt lat="29.0342405" lon="103.0216763"><ele>1852.2</ele><time>2026-04-08T23:46:43.000Z</time></trkpt>
        <trkpt lat="29.0341934" lon="103.021549"><ele>1851.74</ele><time>2026-04-08T23:46:51.000Z</time></trkpt>
        <trkpt lat="29.0341759" lon="103.0214219"><ele>1850.13</ele><time>2026-04-08T23:46:59.000Z</time></trkpt>
        <trkpt lat="29.0342221" lon="103.0213071"><ele>1848.13</ele><time>2026-04-08T23:47:07.000Z</time></trkpt>
        <trkpt lat="29.0343157" lon="103.0212346"><ele>1845.75</ele><time>2026-04-08T23:47:15.000Z</time></trkpt>
        <trkpt lat="29.0344129" lon="103.0211748"><ele>1843.63</ele><time>2026-04-08T23:47:23.000Z</time></trkpt>
        <trkpt lat="29.0345204" lon="103.0211396"><ele>1841</ele><time>2026-04-08T23:47:31.000Z</time></trkpt>
        <trkpt lat="29.0346235" lon="103.021113"><ele>1839.45</ele><time>2026-04-08T23:47:39.000Z</time></trkpt>
        <trkpt lat="29.034718" lon="103.0210757"><ele>1837.45</ele><time>2026-04-08T23:47:47.000Z</time></trkpt>
        <trkpt lat="29.0348084" lon="103.0210426"><ele>1835.19</ele><time>2026-04-08T23:47:55.000Z</time></trkpt>
        <trkpt lat="29.0349013" lon="103.0210153"><ele>1834.64</ele><time>2026-04-08T23:48:03.000Z</time></trkpt>
        <trkpt lat="29.0349931" lon="103.0209822"><ele>1834.3</ele><time>2026-04-08T23:48:11.000Z</time></trkpt>
        <trkpt lat="29.035085" lon="103.0209382"><ele>1833.26</ele><time>2026-04-08T23:48:21.000Z</time></trkpt>
        <trkpt lat="29.0351829" lon="103.0208731"><ele>1832.83</ele><time>2026-04-08T23:48:31.000Z</time></trkpt>
        <trkpt lat="29.0352621" lon="103.0207848"><ele>1832.13</ele><time>2026-04-08T23:48:39.000Z</time></trkpt>
        <trkpt lat="29.0353272" lon="103.0206931"><ele>1831.95</ele><time>2026-04-08T23:48:47.000Z</time></trkpt>
        <trkpt lat="29.0353923" lon="103.0206129"><ele>1832.06</ele><time>2026-04-08T23:48:55.000Z</time></trkpt>
        <trkpt lat="29.0354506" lon="103.0205217"><ele>1831.04</ele><time>2026-04-08T23:49:03.000Z</time></trkpt>
        <trkpt lat="29.0355005" lon="103.0204242"><ele>1830.38</ele><time>2026-04-08T23:49:11.000Z</time></trkpt>
        <trkpt lat="29.0355521" lon="103.0203321"><ele>1829.51</ele><time>2026-04-08T23:49:19.000Z</time></trkpt>
        <trkpt lat="29.0356254" lon="103.0202452"><ele>1828.01</ele><time>2026-04-08T23:49:29.000Z</time></trkpt>
        <trkpt lat="29.0357021" lon="103.0201694"><ele>1827.54</ele><time>2026-04-08T23:49:37.000Z</time></trkpt>
        <trkpt lat="29.035792" lon="103.0201069"><ele>1827.66</ele><time>2026-04-08T23:49:45.000Z</time></trkpt>
        <trkpt lat="29.0358743" lon="103.020045"><ele>1828.2</ele><time>2026-04-08T23:49:53.000Z</time></trkpt>
        <trkpt lat="29.0359443" lon="103.0199692"><ele>1828.74</ele><time>2026-04-08T23:50:01.000Z</time></trkpt>
        <trkpt lat="29.0360106" lon="103.0198975"><ele>1827.03</ele><time>2026-04-08T23:50:09.000Z</time></trkpt>
        <trkpt lat="29.0360664" lon="103.0198031"><ele>1826.35</ele><time>2026-04-08T23:50:19.000Z</time></trkpt>
        <trkpt lat="29.0360285" lon="103.0197007"><ele>1825.11</ele><time>2026-04-08T23:50:29.000Z</time></trkpt>
        <trkpt lat="29.0359706" lon="103.0196041"><ele>1822.92</ele><time>2026-04-08T23:50:37.000Z</time></trkpt>
        <trkpt lat="29.0359" lon="103.0194993"><ele>1821.04</ele><time>2026-04-08T23:50:47.000Z</time></trkpt>
        <trkpt lat="29.0358416" lon="103.0193915"><ele>1819.75</ele><time>2026-04-08T23:50:57.000Z</time></trkpt>
        <trkpt lat="29.0357946" lon="103.0192725"><ele>1818.07</ele><time>2026-04-08T23:51:07.000Z</time></trkpt>
        <trkpt lat="29.0357856" lon="103.0191503"><ele>1817.12</ele><time>2026-04-08T23:51:15.000Z</time></trkpt>
        <trkpt lat="29.0357754" lon="103.0190272"><ele>1816.98</ele><time>2026-04-08T23:51:25.000Z</time></trkpt>
        <trkpt lat="29.0357927" lon="103.0189194"><ele>1817.46</ele><time>2026-04-08T23:51:31.000Z</time></trkpt>
        <trkpt lat="29.0358228" lon="103.0188099"><ele>1817.89</ele><time>2026-04-08T23:51:39.000Z</time></trkpt>
        <trkpt lat="29.0358517" lon="103.0186956"><ele>1818.75</ele><time>2026-04-08T23:51:49.000Z</time></trkpt>
        <trkpt lat="29.0358678" lon="103.0185895"><ele>1818.99</ele><time>2026-04-08T23:51:57.000Z</time></trkpt>
        <trkpt lat="29.0358663" lon="103.0184733"><ele>1818.89</ele><time>2026-04-08T23:52:05.000Z</time></trkpt>
        <trkpt lat="29.0358277" lon="103.0183673"><ele>1818.81</ele><time>2026-04-08T23:52:13.000Z</time></trkpt>
        <trkpt lat="29.0357586" lon="103.018281"><ele>1817.34</ele><time>2026-04-08T23:52:21.000Z</time></trkpt>
        <trkpt lat="29.0356627" lon="103.0182217"><ele>1816.74</ele><time>2026-04-08T23:52:29.000Z</time></trkpt>
        <trkpt lat="29.0355603" lon="103.0181754"><ele>1816.19</ele><time>2026-04-08T23:52:37.000Z</time></trkpt>
        <trkpt lat="29.0354558" lon="103.0181294"><ele>1816.32</ele><time>2026-04-08T23:52:45.000Z</time></trkpt>
        <trkpt lat="29.0353575" lon="103.0180785"><ele>1817.11</ele><time>2026-04-08T23:52:53.000Z</time></trkpt>
        <trkpt lat="29.0352825" lon="103.0179968"><ele>1817.56</ele><time>2026-04-08T23:53:01.000Z</time></trkpt>
        <trkpt lat="29.0353151" lon="103.0179184"><ele>1816.72</ele><time>2026-04-08T23:53:07.000Z</time></trkpt>
        <trkpt lat="29.0353962" lon="103.0178582"><ele>1816.26</ele><time>2026-04-08T23:53:15.000Z</time></trkpt>
        <trkpt lat="29.0354911" lon="103.0178062"><ele>1813.89</ele><time>2026-04-08T23:53:23.000Z</time></trkpt>
        <trkpt lat="29.0356045" lon="103.01776"><ele>1812.62</ele><time>2026-04-08T23:53:31.000Z</time></trkpt>
        <trkpt lat="29.0357207" lon="103.0177178"><ele>1812.76</ele><time>2026-04-08T23:53:39.000Z</time></trkpt>
        <trkpt lat="29.0358337" lon="103.0176758"><ele>1812.22</ele><time>2026-04-08T23:53:47.000Z</time></trkpt>
        <trkpt lat="29.0359364" lon="103.0176384"><ele>1812.34</ele><time>2026-04-08T23:53:55.000Z</time></trkpt>
        <trkpt lat="29.0360359" lon="103.0175996"><ele>1813.1</ele><time>2026-04-08T23:54:05.000Z</time></trkpt>
        <trkpt lat="29.0361273" lon="103.0175801"><ele>1813.28</ele><time>2026-04-08T23:54:13.000Z</time></trkpt>
        <trkpt lat="29.0362191" lon="103.0175741"><ele>1813.2</ele><time>2026-04-08T23:54:21.000Z</time></trkpt>
        <trkpt lat="29.0363134" lon="103.0175914"><ele>1812.84</ele><time>2026-04-08T23:54:29.000Z</time></trkpt>
        <trkpt lat="29.036409" lon="103.0176171"><ele>1812.94</ele><time>2026-04-08T23:54:37.000Z</time></trkpt>
        <trkpt lat="29.0365025" lon="103.0176387"><ele>1813.63</ele><time>2026-04-08T23:54:45.000Z</time></trkpt>
        <trkpt lat="29.0365988" lon="103.0176471"><ele>1814.33</ele><time>2026-04-08T23:54:53.000Z</time></trkpt>
        <trkpt lat="29.0366994" lon="103.0176583"><ele>1813.33</ele><time>2026-04-08T23:55:03.000Z</time></trkpt>
        <trkpt lat="29.0367892" lon="103.017634"><ele>1811.5</ele><time>2026-04-08T23:55:11.000Z</time></trkpt>
        <trkpt lat="29.0368792" lon="103.0175828"><ele>1811.21</ele><time>2026-04-08T23:55:19.000Z</time></trkpt>
        <trkpt lat="29.0369617" lon="103.0175179"><ele>1811.25</ele><time>2026-04-08T23:55:27.000Z</time></trkpt>
        <trkpt lat="29.0370374" lon="103.0174449"><ele>1811.09</ele><time>2026-04-08T23:55:35.000Z</time></trkpt>
        <trkpt lat="29.0371167" lon="103.0173536"><ele>1810.99</ele><time>2026-04-08T23:55:45.000Z</time></trkpt>
        <trkpt lat="29.037194" lon="103.0172841"><ele>1810.48</ele><time>2026-04-08T23:55:51.000Z</time></trkpt>
        <trkpt lat="29.0372747" lon="103.0172072"><ele>1809.46</ele><time>2026-04-08T23:56:01.000Z</time></trkpt>
        <trkpt lat="29.0373533" lon="103.0171187"><ele>1809.54</ele><time>2026-04-08T23:56:11.000Z</time></trkpt>
        <trkpt lat="29.0374107" lon="103.0170308"><ele>1809.42</ele><time>2026-04-08T23:56:19.000Z</time></trkpt>
        <trkpt lat="29.0374732" lon="103.0169314"><ele>1809.41</ele><time>2026-04-08T23:56:27.000Z</time></trkpt>
        <trkpt lat="29.0375427" lon="103.0168522"><ele>1811.51</ele><time>2026-04-08T23:56:35.000Z</time></trkpt>
        <trkpt lat="29.0376139" lon="103.0167636"><ele>1812.09</ele><time>2026-04-08T23:56:45.000Z</time></trkpt>
        <trkpt lat="29.0376789" lon="103.0166842"><ele>1811.98</ele><time>2026-04-08T23:56:53.000Z</time></trkpt>
        <trkpt lat="29.0377454" lon="103.0165908"><ele>1811.68</ele><time>2026-04-08T23:57:03.000Z</time></trkpt>
        <trkpt lat="29.0378057" lon="103.0165048"><ele>1811.53</ele><time>2026-04-08T23:57:11.000Z</time></trkpt>
        <trkpt lat="29.0378684" lon="103.0164106"><ele>1811.46</ele><time>2026-04-08T23:57:21.000Z</time></trkpt>
        <trkpt lat="29.0379364" lon="103.0163212"><ele>1811.32</ele><time>2026-04-08T23:57:31.000Z</time></trkpt>
        <trkpt lat="29.0380222" lon="103.0162617"><ele>1810.52</ele><time>2026-04-08T23:57:41.000Z</time></trkpt>
        <trkpt lat="29.0381187" lon="103.0162755"><ele>1809.64</ele><time>2026-04-08T23:57:51.000Z</time></trkpt>
        <trkpt lat="29.0381968" lon="103.0163637"><ele>1809.28</ele><time>2026-04-08T23:58:01.000Z</time></trkpt>
        <trkpt lat="29.0382796" lon="103.0164568"><ele>1809.56</ele><time>2026-04-08T23:58:11.000Z</time></trkpt>
        <trkpt lat="29.0383799" lon="103.016507"><ele>1810.46</ele><time>2026-04-08T23:58:21.000Z</time></trkpt>
        <trkpt lat="29.0384667" lon="103.0164821"><ele>1810.34</ele><time>2026-04-08T23:58:29.000Z</time></trkpt>
        <trkpt lat="29.0385444" lon="103.0164342"><ele>1809.24</ele><time>2026-04-08T23:58:39.000Z</time></trkpt>
        <trkpt lat="29.038623" lon="103.0163559"><ele>1810.01</ele><time>2026-04-08T23:58:55.000Z</time></trkpt>
        <trkpt lat="29.038716" lon="103.0163508"><ele>1808.37</ele><time>2026-04-08T23:59:03.000Z</time></trkpt>
        <trkpt lat="29.0388157" lon="103.0163654"><ele>1807.73</ele><time>2026-04-08T23:59:11.000Z</time></trkpt>
        <trkpt lat="29.0389089" lon="103.016347"><ele>1807.96</ele><time>2026-04-08T23:59:19.000Z</time></trkpt>
        <trkpt lat="29.0389967" lon="103.0163092"><ele>1807.16</ele><time>2026-04-08T23:59:27.000Z</time></trkpt>
        <trkpt lat="29.039074" lon="103.0162418"><ele>1804.09</ele><time>2026-04-08T23:59:35.000Z</time></trkpt>
        <trkpt lat="29.0391492" lon="103.0161722"><ele>1801.31</ele><time>2026-04-08T23:59:43.000Z</time></trkpt>
        <trkpt lat="29.0391697" lon="103.016068"><ele>1799.17</ele><time>2026-04-08T23:59:51.000Z</time></trkpt>
        <trkpt lat="29.0391186" lon="103.0159682"><ele>1798.07</ele><time>2026-04-09T00:00:01.000Z</time></trkpt>
        <trkpt lat="29.0390756" lon="103.0158655"><ele>1796.87</ele><time>2026-04-09T00:00:09.000Z</time></trkpt>
        <trkpt lat="29.0391355" lon="103.0157941"><ele>1796.13</ele><time>2026-04-09T00:00:17.000Z</time></trkpt>
        <trkpt lat="29.039242" lon="103.0157517"><ele>1795.37</ele><time>2026-04-09T00:00:27.000Z</time></trkpt>
        <trkpt lat="29.039347" lon="103.0157103"><ele>1792.16</ele><time>2026-04-09T00:00:35.000Z</time></trkpt>
        <trkpt lat="29.0394445" lon="103.0156671"><ele>1788.91</ele><time>2026-04-09T00:00:43.000Z</time></trkpt>
        <trkpt lat="29.0394979" lon="103.0155844"><ele>1786.76</ele><time>2026-04-09T00:00:51.000Z</time></trkpt>
        <trkpt lat="29.039516" lon="103.0154679"><ele>1785.36</ele><time>2026-04-09T00:01:04.000Z</time></trkpt>
        <trkpt lat="29.0394946" lon="103.0153421"><ele>1783.92</ele><time>2026-04-09T00:01:09.000Z</time></trkpt>
        <trkpt lat="29.0394736" lon="103.015225"><ele>1782.46</ele><time>2026-04-09T00:01:17.000Z</time></trkpt>
        <trkpt lat="29.0394699" lon="103.0151337"><ele>1780.67</ele><time>2026-04-09T00:01:27.000Z</time></trkpt>
        <trkpt lat="29.0394976" lon="103.0150254"><ele>1779.82</ele><time>2026-04-09T00:01:51.000Z</time></trkpt>
        <trkpt lat="29.0395466" lon="103.0149299"><ele>1777.53</ele><time>2026-04-09T00:02:01.000Z</time></trkpt>
        <trkpt lat="29.0395284" lon="103.0149227"><ele>1776.42</ele><time>2026-04-09T00:02:05.000Z</time></trkpt>
        <trkpt lat="29.0394663" lon="103.0149935"><ele>1775.17</ele><time>2026-04-09T00:02:11.000Z</time></trkpt>
        <trkpt lat="29.0394001" lon="103.0151054"><ele>1774.52</ele><time>2026-04-09T00:02:13.000Z</time></trkpt>
        <trkpt lat="29.0393697" lon="103.0152279"><ele>1774.48</ele><time>2026-04-09T00:02:15.000Z</time></trkpt>
        <trkpt lat="29.0393812" lon="103.0153026"><ele>1775.02</ele><time>2026-04-09T00:02:19.000Z</time></trkpt>
        <trkpt lat="29.0393979" lon="103.0154086"><ele>1774.65</ele><time>2026-04-09T00:02:27.000Z</time></trkpt>
        <trkpt lat="29.0394142" lon="103.0155417"><ele>1775.4</ele><time>2026-04-09T00:02:29.000Z</time></trkpt>
        <trkpt lat="29.0393865" lon="103.0156666"><ele>1776.74</ele><time>2026-04-09T00:02:31.000Z</time></trkpt>
        <trkpt lat="29.03928" lon="103.0157415"><ele>1779.22</ele><time>2026-04-09T00:02:33.000Z</time></trkpt>
        <trkpt lat="29.0391277" lon="103.0157926"><ele>1781.79</ele><time>2026-04-09T00:02:35.000Z</time></trkpt>
        <trkpt lat="29.0390269" lon="103.0158761"><ele>1784.53</ele><time>2026-04-09T00:02:37.000Z</time></trkpt>
        <trkpt lat="29.0390535" lon="103.0160319"><ele>1786.93</ele><time>2026-04-09T00:02:41.000Z</time></trkpt>
        <trkpt lat="29.0390759" lon="103.0161667"><ele>1789.64</ele><time>2026-04-09T00:02:47.000Z</time></trkpt>
        <trkpt lat="29.0390049" lon="103.0162687"><ele>1792.23</ele><time>2026-04-09T00:02:49.000Z</time></trkpt>
        <trkpt lat="29.038876" lon="103.0163371"><ele>1794.93</ele><time>2026-04-09T00:02:51.000Z</time></trkpt>
        <trkpt lat="29.0387349" lon="103.016345"><ele>1797.54</ele><time>2026-04-09T00:02:53.000Z</time></trkpt>
        <trkpt lat="29.0386157" lon="103.0163259"><ele>1800.16</ele><time>2026-04-09T00:02:55.000Z</time></trkpt>
        <trkpt lat="29.038451" lon="103.0164081"><ele>1802.22</ele><time>2026-04-09T00:02:59.000Z</time></trkpt>
        <trkpt lat="29.0383104" lon="103.0164578"><ele>1804.72</ele><time>2026-04-09T00:03:01.000Z</time></trkpt>
        <trkpt lat="29.0381864" lon="103.0164165"><ele>1806.51</ele><time>2026-04-09T00:03:03.000Z</time></trkpt>
        <trkpt lat="29.0380958" lon="103.0163295"><ele>1807.64</ele><time>2026-04-09T00:03:05.000Z</time></trkpt>
        <trkpt lat="29.0380641" lon="103.0162833"><ele>1808.54</ele><time>2026-04-09T00:03:07.000Z</time></trkpt>
        <trkpt lat="29.0381427" lon="103.016374"><ele>1808.92</ele><time>2026-04-09T00:03:35.000Z</time></trkpt>
        <trkpt lat="29.0382362" lon="103.0164574"><ele>1809.16</ele><time>2026-04-09T00:03:37.000Z</time></trkpt>
        <trkpt lat="29.0383975" lon="103.0164747"><ele>1808.91</ele><time>2026-04-09T00:03:41.000Z</time></trkpt>
        <trkpt lat="29.0385297" lon="103.0164032"><ele>1808.31</ele><time>2026-04-09T00:03:43.000Z</time></trkpt>
        <trkpt lat="29.0386567" lon="103.016344"><ele>1807.66</ele><time>2026-04-09T00:03:45.000Z</time></trkpt>
        <trkpt lat="29.0387776" lon="103.0163564"><ele>1806.61</ele><time>2026-04-09T00:03:47.000Z</time></trkpt>
        <trkpt lat="29.0389022" lon="103.0163392"><ele>1805.55</ele><time>2026-04-09T00:03:49.000Z</time></trkpt>
        <trkpt lat="29.0390338" lon="103.0162696"><ele>1804.29</ele><time>2026-04-09T00:03:51.000Z</time></trkpt>
        <trkpt lat="29.0391331" lon="103.0161623"><ele>1801.99</ele><time>2026-04-09T00:03:53.000Z</time></trkpt>
        <trkpt lat="29.0391401" lon="103.0160461"><ele>1799.7</ele><time>2026-04-09T00:03:59.000Z</time></trkpt>
        <trkpt lat="29.0390784" lon="103.0158792"><ele>1797.77</ele><time>2026-04-09T00:04:03.000Z</time></trkpt>
        <trkpt lat="29.0391252" lon="103.0157666"><ele>1795.23</ele><time>2026-04-09T00:04:05.000Z</time></trkpt>
        <trkpt lat="29.0392552" lon="103.0157109"><ele>1792.51</ele><time>2026-04-09T00:04:07.000Z</time></trkpt>
        <trkpt lat="29.0393981" lon="103.015645"><ele>1790.15</ele><time>2026-04-09T00:04:09.000Z</time></trkpt>
        <trkpt lat="29.0394781" lon="103.0155212"><ele>1787.78</ele><time>2026-04-09T00:04:11.000Z</time></trkpt>
        <trkpt lat="29.0394659" lon="103.0153567"><ele>1785.59</ele><time>2026-04-09T00:04:13.000Z</time></trkpt>
        <trkpt lat="29.0394421" lon="103.0151797"><ele>1783.23</ele><time>2026-04-09T00:04:15.000Z</time></trkpt>
        <trkpt lat="29.0394617" lon="103.0150476"><ele>1780.77</ele><time>2026-04-09T00:04:17.000Z</time></trkpt>
        <trkpt lat="29.0394793" lon="103.0150035"><ele>1778.25</ele><time>2026-04-09T00:04:21.000Z</time></trkpt>
        <trkpt lat="29.0395123" lon="103.0148806"><ele>1776.32</ele><time>2026-04-09T00:04:33.000Z</time></trkpt>
        <trkpt lat="29.0394769" lon="103.0147683"><ele>1773.48</ele><time>2026-04-09T00:04:35.000Z</time></trkpt>
        <trkpt lat="29.0393856" lon="103.0146615"><ele>1771.53</ele><time>2026-04-09T00:04:37.000Z</time></trkpt>
        <trkpt lat="29.039318" lon="103.0145323"><ele>1769.53</ele><time>2026-04-09T00:04:39.000Z</time></trkpt>
        <trkpt lat="29.0393535" lon="103.0144047"><ele>1767.75</ele><time>2026-04-09T00:04:41.000Z</time></trkpt>
        <trkpt lat="29.0394382" lon="103.0142764"><ele>1766.14</ele><time>2026-04-09T00:04:43.000Z</time></trkpt>
        <trkpt lat="29.039506" lon="103.0141187"><ele>1764.45</ele><time>2026-04-09T00:04:45.000Z</time></trkpt>
        <trkpt lat="29.03951" lon="103.0139436"><ele>1762.58</ele><time>2026-04-09T00:04:47.000Z</time></trkpt>
        <trkpt lat="29.0394303" lon="103.0138"><ele>1761.11</ele><time>2026-04-09T00:04:49.000Z</time></trkpt>
        <trkpt lat="29.0393262" lon="103.0136908"><ele>1760</ele><time>2026-04-09T00:04:51.000Z</time></trkpt>
        <trkpt lat="29.0392856" lon="103.0135707"><ele>1758.82</ele><time>2026-04-09T00:04:53.000Z</time></trkpt>
        <trkpt lat="29.0393187" lon="103.0134646"><ele>1757.76</ele><time>2026-04-09T00:04:55.000Z</time></trkpt>
        <trkpt lat="29.0393875" lon="103.0133843"><ele>1756.49</ele><time>2026-04-09T00:04:59.000Z</time></trkpt>
        <trkpt lat="29.0394617" lon="103.013242"><ele>1754.88</ele><time>2026-04-09T00:05:25.000Z</time></trkpt>
        <trkpt lat="29.039497" lon="103.0130745"><ele>1752.43</ele><time>2026-04-09T00:05:27.000Z</time></trkpt>
        <trkpt lat="29.0395053" lon="103.012906"><ele>1750.02</ele><time>2026-04-09T00:05:29.000Z</time></trkpt>
        <trkpt lat="29.0395025" lon="103.0127611"><ele>1747.95</ele><time>2026-04-09T00:05:31.000Z</time></trkpt>
        <trkpt lat="29.0394978" lon="103.0126052"><ele>1745.85</ele><time>2026-04-09T00:05:33.000Z</time></trkpt>
        <trkpt lat="29.0394862" lon="103.0124254"><ele>1743.85</ele><time>2026-04-09T00:05:35.000Z</time></trkpt>
        <trkpt lat="29.0394784" lon="103.0122536"><ele>1741.85</ele><time>2026-04-09T00:05:37.000Z</time></trkpt>
        <trkpt lat="29.0395261" lon="103.0121231"><ele>1739.96</ele><time>2026-04-09T00:05:39.000Z</time></trkpt>
        <trkpt lat="29.0396424" lon="103.0120335"><ele>1738.14</ele><time>2026-04-09T00:05:41.000Z</time></trkpt>
        <trkpt lat="29.0398019" lon="103.011955"><ele>1736.42</ele><time>2026-04-09T00:05:43.000Z</time></trkpt>
        <trkpt lat="29.0399886" lon="103.0118581"><ele>1734.39</ele><time>2026-04-09T00:05:45.000Z</time></trkpt>
        <trkpt lat="29.0401868" lon="103.011742"><ele>1731.98</ele><time>2026-04-09T00:05:47.000Z</time></trkpt>
        <trkpt lat="29.0403752" lon="103.0116313"><ele>1729.45</ele><time>2026-04-09T00:05:49.000Z</time></trkpt>
        <trkpt lat="29.0405431" lon="103.0115726"><ele>1727.6</ele><time>2026-04-09T00:05:51.000Z</time></trkpt>
        <trkpt lat="29.040678" lon="103.011622"><ele>1726.65</ele><time>2026-04-09T00:05:53.000Z</time></trkpt>
        <trkpt lat="29.0407726" lon="103.011757"><ele>1726.2</ele><time>2026-04-09T00:05:55.000Z</time></trkpt>
        <trkpt lat="29.0408691" lon="103.0118845"><ele>1725.22</ele><time>2026-04-09T00:05:57.000Z</time></trkpt>
        <trkpt lat="29.0409834" lon="103.0119061"><ele>1724.05</ele><time>2026-04-09T00:05:59.000Z</time></trkpt>
        <trkpt lat="29.0411076" lon="103.0118343"><ele>1722.78</ele><time>2026-04-09T00:06:01.000Z</time></trkpt>
        <trkpt lat="29.0412526" lon="103.0117312"><ele>1721.49</ele><time>2026-04-09T00:06:03.000Z</time></trkpt>
        <trkpt lat="29.0414256" lon="103.0116539"><ele>1719.71</ele><time>2026-04-09T00:06:05.000Z</time></trkpt>
        <trkpt lat="29.0416047" lon="103.0115981"><ele>1717.59</ele><time>2026-04-09T00:06:07.000Z</time></trkpt>
        <trkpt lat="29.0417617" lon="103.0114767"><ele>1715.3</ele><time>2026-04-09T00:06:09.000Z</time></trkpt>
        <trkpt lat="29.0418954" lon="103.0113117"><ele>1713.3</ele><time>2026-04-09T00:06:11.000Z</time></trkpt>
        <trkpt lat="29.042047" lon="103.0111648"><ele>1711.62</ele><time>2026-04-09T00:06:13.000Z</time></trkpt>
        <trkpt lat="29.0422312" lon="103.01106"><ele>1710.37</ele><time>2026-04-09T00:06:15.000Z</time></trkpt>
        <trkpt lat="29.0424547" lon="103.0109781"><ele>1709.02</ele><time>2026-04-09T00:06:17.000Z</time></trkpt>
        <trkpt lat="29.0427052" lon="103.0108963"><ele>1707.61</ele><time>2026-04-09T00:06:19.000Z</time></trkpt>
        <trkpt lat="29.0429633" lon="103.0107952"><ele>1706.44</ele><time>2026-04-09T00:06:21.000Z</time></trkpt>
        <trkpt lat="29.043207" lon="103.0106748"><ele>1704.93</ele><time>2026-04-09T00:06:23.000Z</time></trkpt>
        <trkpt lat="29.0434118" lon="103.0105358"><ele>1703.65</ele><time>2026-04-09T00:06:25.000Z</time></trkpt>
        <trkpt lat="29.0435489" lon="103.0103624"><ele>1702.58</ele><time>2026-04-09T00:06:27.000Z</time></trkpt>
        <trkpt lat="29.0435946" lon="103.0101634"><ele>1701.16</ele><time>2026-04-09T00:06:29.000Z</time></trkpt>
        <trkpt lat="29.0435805" lon="103.0099722"><ele>1699.89</ele><time>2026-04-09T00:06:31.000Z</time></trkpt>
        <trkpt lat="29.0435479" lon="103.0098351"><ele>1698.28</ele><time>2026-04-09T00:06:33.000Z</time></trkpt>
        <trkpt lat="29.0435146" lon="103.0097267"><ele>1696.85</ele><time>2026-04-09T00:06:35.000Z</time></trkpt>
        <trkpt lat="29.0435375" lon="103.0095939"><ele>1695.8</ele><time>2026-04-09T00:06:39.000Z</time></trkpt>
        <trkpt lat="29.0436512" lon="103.0095173"><ele>1695.11</ele><time>2026-04-09T00:06:43.000Z</time></trkpt>
        <trkpt lat="29.0437945" lon="103.0094501"><ele>1694.59</ele><time>2026-04-09T00:06:47.000Z</time></trkpt>
        <trkpt lat="29.0437845" lon="103.0093061"><ele>1694.42</ele><time>2026-04-09T00:06:51.000Z</time></trkpt>
        <trkpt lat="29.043744" lon="103.0091854"><ele>1694.98</ele><time>2026-04-09T00:06:55.000Z</time></trkpt>
        <trkpt lat="29.0437332" lon="103.0091475"><ele>1695.6</ele><time>2026-04-09T00:06:59.000Z</time></trkpt>
        <trkpt lat="29.0436779" lon="103.0090954"><ele>1696.18</ele><time>2026-04-09T00:07:53.000Z</time></trkpt>
        <trkpt lat="29.0436273" lon="103.009001"><ele>1696.11</ele><time>2026-04-09T00:08:05.000Z</time></trkpt>
        <trkpt lat="29.0436477" lon="103.0089057"><ele>1696.38</ele><time>2026-04-09T00:08:17.000Z</time></trkpt>
        <trkpt lat="29.0437274" lon="103.0088492"><ele>1696.5</ele><time>2026-04-09T00:08:25.000Z</time></trkpt>
        <trkpt lat="29.0438292" lon="103.0088011"><ele>1697.09</ele><time>2026-04-09T00:08:35.000Z</time></trkpt>
        <trkpt lat="29.0439275" lon="103.0087426"><ele>1697.58</ele><time>2026-04-09T00:08:47.000Z</time></trkpt>
        <trkpt lat="29.0439998" lon="103.0086618"><ele>1697.79</ele><time>2026-04-09T00:09:03.000Z</time></trkpt>
        <trkpt lat="29.0440334" lon="103.0085571"><ele>1697.68</ele><time>2026-04-09T00:09:13.000Z</time></trkpt>
        <trkpt lat="29.0440553" lon="103.0084464"><ele>1698.29</ele><time>2026-04-09T00:09:37.000Z</time></trkpt>
        <trkpt lat="29.0441126" lon="103.0083692"><ele>1699.02</ele><time>2026-04-09T00:09:49.000Z</time></trkpt>
        <trkpt lat="29.0441126" lon="103.0083692"><ele>1699.02</ele><time>2026-04-09T00:09:58.000Z</time></trkpt>
      </trkseg>
  </trk>
</gpx>